Terminal Aerodrome Forecast
Issued by NWS

Home | Current Version | Previous Version | Text Only | Print | Product List | Glossary On
Versions: 1 2 3 4 5 6 7 8 9 10 11 12 13 14
000
FTUS44 KLZK 251100
TAFBPK
TAF
KBPK 251138Z 2512/2612 21004KT P6SM SKC
      TEMPO 2512/2513 5SM BR
     FM251600 27005KT P6SM SKC
     FM260000 16003KT P6SM SCT250
     FM260600 15003KT 5SM BR SCT250=

USA.gov is the U.S. government's official web portal to all federal, state and local government web resources and services.